Time;durP1;ratioP1;P1;durP2;ratioP2;P2;SDS_P1;SDS_P2;PMS_P1;PMS_P2;Temp;Humidity;BMP_temperature;BMP_pressure;BME280_temperature;BME280_humidity;BME280_pressure;Samples;Min_cycle;Max_cycle;Signal;HPM_P1;HPM_P2
2023/01/30 00:00:30;;;;;;;0.55;0.45;;;;;;;;;;2090104;28;20097;-64
2023/01/30 00:01:49;;;;;;;4.57;0.68;;;;;;;;;;2088516;28;20497;-65
2023/01/30 00:03:08;;;;;;;2.38;0.52;;;;;;;;;;2092421;28;20033;-64
2023/01/30 00:04:27;;;;;;;3.20;1.17;;;;;;;;;;2090224;28;20525;-65
2023/01/30 00:05:46;;;;;;;3.55;0.90;;;;;;;;;;2087948;28;20040;-65
2023/01/30 00:07:05;;;;;;;2.50;0.40;;;;;;;;;;2090428;28;20048;-65
2023/01/30 00:08:24;;;;;;;2.58;0.68;;;;;;;;;;2090277;28;20032;-68
2023/01/30 00:09:43;;;;;;;3.10;0.63;;;;;;;;;;2090719;28;20029;-65
2023/01/30 00:11:03;;;;;;;1.80;0.40;;;;;;;;;;2091130;28;20501;-65
2023/01/30 00:12:22;;;;;;;1.27;0.60;;;;;;;;;;2089653;28;20517;-65
2023/01/30 00:13:41;;;;;;;3.22;0.32;;;;;;;;;;2090135;28;20490;-65
2023/01/30 00:15:00;;;;;;;2.05;0.52;;;;;;;;;;2085590;28;20128;-67
2023/01/30 00:16:19;;;;;;;0.70;0.40;;;;;;;;;;2089125;28;20032;-65
2023/01/30 00:17:38;;;;;;;1.83;0.50;;;;;;;;;;2091932;28;20029;-64
2023/01/30 00:18:57;;;;;;;1.60;0.55;;;;;;;;;;2089606;28;20036;-65
2023/01/30 00:20:16;;;;;;;0.93;0.40;;;;;;;;;;2090053;28;20902;-64
2023/01/30 00:21:35;;;;;;;2.67;0.73;;;;;;;;;;2087592;28;20597;-65
2023/01/30 00:22:54;;;;;;;1.23;0.38;;;;;;;;;;2089570;28;20033;-65
2023/01/30 00:24:13;;;;;;;1.33;0.55;;;;;;;;;;2091148;28;20021;-65
2023/01/30 00:25:32;;;;;;;2.00;0.60;;;;;;;;;;2091302;28;20036;-65
2023/01/30 00:26:51;;;;;;;2.10;0.50;;;;;;;;;;2092453;28;20564;-65
2023/01/30 00:28:10;;;;;;;2.17;0.63;;;;;;;;;;2091903;28;20033;-65
2023/01/30 00:29:29;;;;;;;1.45;0.55;;;;;;;;;;2091564;28;20033;-67
2023/01/30 00:30:49;;;;;;;1.75;0.60;;;;;;;;;;2090929;28;20036;-65
2023/01/30 00:32:08;;;;;;;1.27;0.43;;;;;;;;;;2090437;28;20033;-67
2023/01/30 00:33:27;;;;;;;2.72;0.40;;;;;;;;;;2092029;28;20044;-65
2023/01/30 00:34:46;;;;;;;0.95;0.90;;;;;;;;;;2091021;28;20028;-65
2023/01/30 00:36:05;;;;;;;2.35;0.45;;;;;;;;;;2090357;28;20032;-65
2023/01/30 00:37:24;;;;;;;0.95;0.45;;;;;;;;;;2091824;28;20828;-65
2023/01/30 00:38:43;;;;;;;1.33;0.60;;;;;;;;;;2092502;28;20025;-65
2023/01/30 00:40:02;;;;;;;0.70;0.40;;;;;;;;;;2089949;28;20493;-66
2023/01/30 00:41:21;;;;;;;1.55;0.60;;;;;;;;;;2091739;28;20048;-65
2023/01/30 00:47:34;;;;;;;3.63;0.80;;;;;;;;;;2092755;28;20033;-65
2023/01/30 00:48:53;;;;;;;1.90;0.40;;;;;;;;;;2090307;28;20048;-65
2023/01/30 00:50:12;;;;;;;0.80;0.55;;;;;;;;;;2090697;28;20041;-65
2023/01/30 00:51:31;;;;;;;0.50;0.50;;;;;;;;;;2089781;28;20469;-65
2023/01/30 00:52:50;;;;;;;0.65;0.30;;;;;;;;;;2092881;28;20029;-65
2023/01/30 00:54:09;;;;;;;0.77;0.40;;;;;;;;;;2092957;28;20100;-65
2023/01/30 00:55:28;;;;;;;2.70;0.50;;;;;;;;;;2092351;28;20096;-65
2023/01/30 00:56:47;;;;;;;2.28;0.52;;;;;;;;;;2089072;28;20083;-65
2023/01/30 00:58:06;;;;;;;1.60;0.70;;;;;;;;;;2092222;28;20029;-65
2023/01/30 00:59:26;;;;;;;2.83;0.80;;;;;;;;;;2091571;28;20041;-65
2023/01/30 01:00:45;;;;;;;0.82;0.30;;;;;;;;;;2092438;28;20028;-65
2023/01/30 01:02:03;;;;;;;2.85;0.20;;;;;;;;;;2090705;28;20033;-67
2023/01/30 01:03:22;;;;;;;1.33;0.30;;;;;;;;;;2090672;28;20082;-65
2023/01/30 01:04:44;;;;;;;1.02;0.85;;;;;;;;;;2091942;28;20103;-65
2023/01/30 01:06:03;;;;;;;0.93;0.40;;;;;;;;;;2092552;28;20028;-66
2023/01/30 01:07:22;;;;;;;1.10;0.47;;;;;;;;;;2090503;28;20396;-65
2023/01/30 01:08:41;;;;;;;0.90;0.38;;;;;;;;;;2091847;28;20029;-65
2023/01/30 01:10:00;;;;;;;4.20;0.43;;;;;;;;;;2092737;28;20056;-65
2023/01/30 01:11:25;;;;;;;0.38;0.38;;;;;;;;;;2092263;28;20029;-65
2023/01/30 01:12:45;;;;;;;1.42;0.40;;;;;;;;;;2093055;28;20493;-65
2023/01/30 01:14:04;;;;;;;0.98;0.43;;;;;;;;;;2090274;28;20037;-65
2023/01/30 01:15:24;;;;;;;0.95;0.40;;;;;;;;;;2091689;28;20037;-65
2023/01/30 01:16:44;;;;;;;0.30;0.30;;;;;;;;;;2090537;28;20029;-65
2023/01/30 01:18:03;;;;;;;1.02;0.40;;;;;;;;;;2093704;28;20484;-66
2023/01/30 01:19:22;;;;;;;0.80;0.57;;;;;;;;;;2093050;28;20032;-65
2023/01/30 01:20:41;;;;;;;2.05;0.43;;;;;;;;;;2092228;28;20017;-65
2023/01/30 01:22:00;;;;;;;0.52;0.25;;;;;;;;;;2088442;28;20083;-66
2023/01/30 01:23:18;;;;;;;0.32;0.20;;;;;;;;;;2091490;28;20025;-67
2023/01/30 01:24:37;;;;;;;0.35;0.25;;;;;;;;;;2092709;28;20147;-65
2023/01/30 01:26:00;;;;;;;1.00;0.30;;;;;;;;;;2090732;28;20029;-65
2023/01/30 01:27:18;;;;;;;0.70;0.22;;;;;;;;;;2089612;28;20124;-65
2023/01/30 01:28:37;;;;;;;1.55;0.43;;;;;;;;;;2091870;28;20021;-66
2023/01/30 01:29:56;;;;;;;1.45;0.20;;;;;;;;;;2091435;28;20415;-65
2023/01/30 01:31:16;;;;;;;1.08;0.20;;;;;;;;;;2090615;28;20028;-65
2023/01/30 01:32:34;;;;;;;1.73;0.30;;;;;;;;;;2090091;28;20033;-65
2023/01/30 01:33:53;;;;;;;0.43;0.30;;;;;;;;;;2092567;28;20033;-65
2023/01/30 01:35:12;;;;;;;1.23;0.22;;;;;;;;;;2093990;28;20028;-65
2023/01/30 01:36:31;;;;;;;0.20;0.20;;;;;;;;;;2092147;28;20033;-65
2023/01/30 01:37:54;;;;;;;0.60;0.28;;;;;;;;;;2089838;28;20497;-65
2023/01/30 01:39:13;;;;;;;1.00;0.40;;;;;;;;;;2091129;28;20029;-65
2023/01/30 01:42:10;;;;;;;0.25;0.20;;;;;;;;;;2089605;28;20044;-66
2023/01/30 01:43:31;;;;;;;0.57;0.25;;;;;;;;;;2092020;28;20021;-65
2023/01/30 01:44:59;;;;;;;0.30;0.20;;;;;;;;;;2092308;28;20028;-67
2023/01/30 01:46:21;;;;;;;0.20;0.20;;;;;;;;;;2092153;28;20032;-66
2023/01/30 01:47:59;;;;;;;0.65;0.20;;;;;;;;;;2093160;28;20060;-65
2023/01/30 01:49:21;;;;;;;0.77;0.28;;;;;;;;;;2093482;28;20419;-65
2023/01/30 01:50:55;;;;;;;0.57;0.25;;;;;;;;;;2099873;28;20033;-65
2023/01/30 01:52:14;;;;;;;;;;;;;;;;;;2090229;28;20049;-65
2023/01/30 01:53:35;;;;;;;1.33;0.10;;;;;;;;;;2092892;28;19913;-65
2023/01/30 01:54:59;;;;;;;0.75;0.20;;;;;;;;;;2093235;28;20041;-65
2023/01/30 01:56:19;;;;;;;0.57;0.32;;;;;;;;;;2092112;28;20040;-66
2023/01/30 01:57:41;;;;;;;0.82;0.20;;;;;;;;;;2091894;28;20041;-67
2023/01/30 01:59:03;;;;;;;0.95;0.20;;;;;;;;;;2093155;28;20032;-64
2023/01/30 02:00:23;;;;;;;0.47;0.28;;;;;;;;;;2089363;28;20041;-64
2023/01/30 02:01:41;;;;;;;0.20;0.20;;;;;;;;;;2091475;28;20033;-64
2023/01/30 02:03:01;;;;;;;0.65;0.20;;;;;;;;;;2087635;28;20036;-65
2023/01/30 02:05:00;;;;;;;1.38;0.40;;;;;;;;;;2090918;28;20107;-66
2023/01/30 02:06:00;;;;;;;0.95;0.20;;;;;;;;;;2091771;28;20544;-65
2023/01/30 02:07:20;;;;;;;0.35;0.20;;;;;;;;;;2092438;28;20040;-65
2023/01/30 02:08:44;;;;;;;0.35;0.30;;;;;;;;;;2090325;28;20033;-64
2023/01/30 02:10:05;;;;;;;0.65;0.20;;;;;;;;;;2092142;28;20042;-64
2023/01/30 02:11:30;;;;;;;0.20;0.10;;;;;;;;;;2093391;28;20037;-65
2023/01/30 02:12:50;;;;;;;0.15;0.10;;;;;;;;;;2090359;28;20041;-65
2023/01/30 02:14:10;;;;;;;1.00;0.35;;;;;;;;;;2092288;28;20020;-65
2023/01/30 02:15:29;;;;;;;0.65;0.17;;;;;;;;;;2090484;28;20107;-65
2023/01/30 02:16:48;;;;;;;0.40;0.20;;;;;;;;;;2090502;28;20100;-67
2023/01/30 02:18:07;;;;;;;0.25;0.20;;;;;;;;;;2091144;28;20029;-65
2023/01/30 02:19:44;;;;;;;1.17;0.20;;;;;;;;;;2092999;28;20036;-64
2023/01/30 02:21:35;;;;;;;0.10;0.10;;;;;;;;;;2093646;28;20839;-66
2023/01/30 02:23:20;;;;;;;0.20;0.10;;;;;;;;;;2087335;28;20029;-65
2023/01/30 02:24:50;;;;;;;0.47;0.10;;;;;;;;;;2089466;28;20021;-64
2023/01/30 02:26:20;;;;;;;2.58;0.20;;;;;;;;;;2091906;28;20024;-64
2023/01/30 02:27:56;;;;;;;0.63;0.30;;;;;;;;;;2091051;28;20024;-64
2023/01/30 02:29:15;;;;;;;0.47;0.20;;;;;;;;;;2094071;28;20056;-64
2023/01/30 02:30:53;;;;;;;0.85;0.20;;;;;;;;;;2090598;28;20480;-64
2023/01/30 02:32:18;;;;;;;3.03;0.20;;;;;;;;;;2092878;28;20037;-64
2023/01/30 02:33:40;;;;;;;0.32;0.10;;;;;;;;;;2092436;28;20037;-64
2023/01/30 02:35:00;;;;;;;1.52;0.20;;;;;;;;;;2090248;28;20017;-64
2023/01/30 02:36:32;;;;;;;0.47;0.17;;;;;;;;;;2090360;28;20033;-64
2023/01/30 02:38:08;;;;;;;0.57;0.20;;;;;;;;;;2090982;28;20481;-69
2023/01/30 02:39:43;;;;;;;0.30;0.10;;;;;;;;;;2090922;28;20614;-65
2023/01/30 02:41:05;;;;;;;0.63;0.30;;;;;;;;;;2092209;28;20029;-64
2023/01/30 02:42:43;;;;;;;0.10;0.10;;;;;;;;;;2091113;28;20025;-64
2023/01/30 02:44:04;;;;;;;1.02;0.20;;;;;;;;;;2091856;28;20033;-64
2023/01/30 02:45:24;;;;;;;4.13;0.30;;;;;;;;;;2088372;28;20143;-64
2023/01/30 02:46:54;;;;;;;1.75;0.30;;;;;;;;;;2088443;28;20025;-66
2023/01/30 02:48:35;;;;;;;0.50;0.25;;;;;;;;;;2090146;28;20107;-64
2023/01/30 02:49:57;;;;;;;0.50;0.25;;;;;;;;;;2091760;28;20112;-65
2023/01/30 02:51:16;;;;;;;;;;;;;;;;;;2091038;28;20025;-64
2023/01/30 02:52:36;;;;;;;1.30;0.20;;;;;;;;;;2088022;28;19916;-66
2023/01/30 02:53:56;;;;;;;2.03;0.20;;;;;;;;;;2090150;28;20501;-65
2023/01/30 02:55:23;;;;;;;0.60;0.30;;;;;;;;;;2089505;28;20060;-64
2023/01/30 02:56:43;;;;;;;0.88;0.22;;;;;;;;;;2088938;28;20025;-64
2023/01/30 02:58:03;;;;;;;1.98;0.35;;;;;;;;;;2090080;28;20033;-64
2023/01/30 02:59:26;;;;;;;1.23;0.32;;;;;;;;;;2091823;28;20037;-64
2023/01/30 03:01:04;;;;;;;3.17;1.60;;;;;;;;;;2089044;28;20021;-64
2023/01/30 03:02:31;;;;;;;0.85;0.43;;;;;;;;;;2091096;28;20028;-64
2023/01/30 03:03:56;;;;;;;1.63;0.50;;;;;;;;;;2090974;28;20033;-64
2023/01/30 03:05:38;;;;;;;1.13;0.35;;;;;;;;;;2089196;28;20071;-64
2023/01/30 03:06:57;;;;;;;5.20;0.45;;;;;;;;;;2087610;28;20057;-64
2023/01/30 03:08:27;;;;;;;1.33;0.30;;;;;;;;;;2089055;28;20420;-64
2023/01/30 03:09:57;;;;;;;3.13;0.70;;;;;;;;;;2090751;28;20057;-64
2023/01/30 03:11:16;;;;;;;4.13;0.70;;;;;;;;;;2090823;28;20056;-64
2023/01/30 03:12:35;;;;;;;0.98;0.40;;;;;;;;;;2089607;28;20497;-66
2023/01/30 03:13:57;;;;;;;0.82;0.40;;;;;;;;;;2087692;28;20064;-65
2023/01/30 03:15:23;;;;;;;7.47;0.80;;;;;;;;;;2084828;28;20409;-65
2023/01/30 03:16:43;;;;;;;1.27;0.47;;;;;;;;;;2086289;28;20048;-65
2023/01/30 03:18:02;;;;;;;2.33;0.45;;;;;;;;;;2086702;28;20025;-65
2023/01/30 03:19:21;;;;;;;3.10;0.75;;;;;;;;;;2089307;28;20112;-65
2023/01/30 03:20:40;;;;;;;3.80;0.60;;;;;;;;;;2091024;28;20021;-65
2023/01/30 03:21:59;;;;;;;2.40;0.60;;;;;;;;;;2090070;28;20044;-65
2023/01/30 03:23:18;;;;;;;3.13;0.93;;;;;;;;;;2089207;28;20104;-64
2023/01/30 03:24:37;;;;;;;1.65;0.60;;;;;;;;;;2085440;28;20036;-66
2023/01/30 03:25:57;;;;;;;1.23;0.40;;;;;;;;;;2091341;28;20392;-64
2023/01/30 03:27:16;;;;;;;2.58;0.45;;;;;;;;;;2090944;28;20025;-65
2023/01/30 03:28:36;;;;;;;0.75;0.60;;;;;;;;;;2087661;28;20037;-66
2023/01/30 03:29:55;;;;;;;2.20;0.30;;;;;;;;;;2088349;28;20041;-65
2023/01/30 03:31:14;;;;;;;0.38;0.30;;;;;;;;;;2091605;28;20488;-64
2023/01/30 03:32:33;;;;;;;2.05;0.43;;;;;;;;;;2089998;28;20436;-66
2023/01/30 03:33:52;;;;;;;1.67;0.35;;;;;;;;;;2091819;28;20929;-66
2023/01/30 03:35:11;;;;;;;2.08;0.57;;;;;;;;;;2090510;28;20028;-64
2023/01/30 03:36:30;;;;;;;1.30;0.47;;;;;;;;;;2090656;28;20025;-65
2023/01/30 03:37:49;;;;;;;2.15;0.63;;;;;;;;;;2088622;28;20032;-65
2023/01/30 03:39:08;;;;;;;1.85;0.57;;;;;;;;;;2090015;28;20029;-64
2023/01/30 03:40:26;;;;;;;3.67;0.90;;;;;;;;;;2089701;28;20075;-65
2023/01/30 03:41:45;;;;;;;3.85;0.60;;;;;;;;;;2091629;28;20029;-64
2023/01/30 03:43:05;;;;;;;3.15;0.60;;;;;;;;;;2091428;28;20037;-64
2023/01/30 03:44:24;;;;;;;1.90;0.47;;;;;;;;;;2088125;28;21109;-65
2023/01/30 03:45:43;;;;;;;1.75;0.98;;;;;;;;;;2091027;28;20021;-64
2023/01/30 03:47:02;;;;;;;3.75;0.88;;;;;;;;;;2090964;28;20052;-64
2023/01/30 03:48:20;;;;;;;5.60;0.52;;;;;;;;;;2086195;28;20029;-64
2023/01/30 03:49:40;;;;;;;3.00;0.43;;;;;;;;;;2092339;28;20045;-66
2023/01/30 03:50:59;;;;;;;3.17;0.75;;;;;;;;;;2092127;28;20090;-64
2023/01/30 03:52:18;;;;;;;7.70;0.85;;;;;;;;;;2091089;28;20048;-64
2023/01/30 03:53:37;;;;;;;3.33;0.60;;;;;;;;;;2090810;28;20024;-64
2023/01/30 03:54:56;;;;;;;4.60;0.75;;;;;;;;;;2091146;28;20033;-65
2023/01/30 03:56:14;;;;;;;3.72;0.57;;;;;;;;;;2088501;28;20074;-64
2023/01/30 03:57:33;;;;;;;4.97;0.98;;;;;;;;;;2091639;28;20033;-64
2023/01/30 03:58:52;;;;;;;7.72;1.05;;;;;;;;;;2091654;28;20037;-64
2023/01/30 04:00:11;;;;;;;3.05;1.15;;;;;;;;;;2090084;28;20033;-64
2023/01/30 04:01:30;;;;;;;3.85;0.93;;;;;;;;;;2092473;28;20036;-63
2023/01/30 04:02:50;;;;;;;5.55;0.73;;;;;;;;;;2091699;28;20107;-63
2023/01/30 04:04:09;;;;;;;5.45;1.10;;;;;;;;;;2091278;28;20057;-64
2023/01/30 04:05:28;;;;;;;5.88;1.15;;;;;;;;;;2090460;28;20506;-64
2023/01/30 04:06:47;;;;;;;6.78;0.73;;;;;;;;;;2089528;28;20032;-64
2023/01/30 04:08:06;;;;;;;2.22;0.70;;;;;;;;;;2089998;28;20060;-64
2023/01/30 04:09:25;;;;;;;2.13;0.93;;;;;;;;;;2091611;28;20032;-65
2023/01/30 04:10:44;;;;;;;6.03;1.30;;;;;;;;;;2089366;28;20033;-63
2023/01/30 04:12:03;;;;;;;5.38;1.05;;;;;;;;;;2089042;28;20112;-64
2023/01/30 04:13:22;;;;;;;4.30;0.68;;;;;;;;;;2090954;28;20522;-64
2023/01/30 04:14:41;;;;;;;7.18;1.10;;;;;;;;;;2091009;28;20116;-64
2023/01/30 04:16:16;;;;;;;4.70;1.35;;;;;;;;;;2090602;28;20033;-63
2023/01/30 04:17:35;;;;;;;2.38;0.80;;;;;;;;;;2092498;28;20045;-64
2023/01/30 04:18:54;;;;;;;5.20;1.30;;;;;;;;;;2091801;28;20033;-64
2023/01/30 04:20:13;;;;;;;6.05;1.08;;;;;;;;;;2087552;28;20033;-64
2023/01/30 04:21:32;;;;;;;1.98;0.77;;;;;;;;;;2092649;28;20072;-64
2023/01/30 04:22:53;;;;;;;4.43;1.55;;;;;;;;;;2089051;28;20033;-65
2023/01/30 04:24:11;;;;;;;4.78;1.20;;;;;;;;;;2090481;28;20751;-64
2023/01/30 04:25:30;;;;;;;1.90;0.73;;;;;;;;;;2091036;28;20036;-64
2023/01/30 04:26:49;;;;;;;5.68;1.15;;;;;;;;;;2091901;28;20033;-64
2023/01/30 04:28:08;;;;;;;6.03;1.10;;;;;;;;;;2090903;28;20034;-64
2023/01/30 04:29:27;;;;;;;6.53;1.25;;;;;;;;;;2091607;28;20518;-64
2023/01/30 04:30:46;;;;;;;3.28;0.68;;;;;;;;;;2086279;28;20074;-64
2023/01/30 04:32:05;;;;;;;2.35;0.90;;;;;;;;;;2089702;28;20111;-64
2023/01/30 04:33:24;;;;;;;4.65;0.90;;;;;;;;;;2092609;28;20107;-64
2023/01/30 04:34:44;;;;;;;4.22;0.95;;;;;;;;;;2089354;28;20471;-64
2023/01/30 04:36:03;;;;;;;5.68;0.90;;;;;;;;;;2090345;28;20037;-64
2023/01/30 04:37:22;;;;;;;6.10;1.00;;;;;;;;;;2086734;28;20489;-64
2023/01/30 04:38:41;;;;;;;5.70;1.15;;;;;;;;;;2089593;28;20040;-65
2023/01/30 04:40:00;;;;;;;5.28;1.13;;;;;;;;;;2089980;28;20033;-64
2023/01/30 04:41:19;;;;;;;3.75;1.35;;;;;;;;;;2091177;28;20439;-64
2023/01/30 04:42:39;;;;;;;7.38;1.30;;;;;;;;;;2088160;28;20111;-64
2023/01/30 04:43:57;;;;;;;4.18;1.30;;;;;;;;;;2089220;28;20044;-64
2023/01/30 04:45:16;;;;;;;4.60;0.98;;;;;;;;;;2087793;28;20458;-66
2023/01/30 04:46:35;;;;;;;6.57;1.05;;;;;;;;;;2090383;28;20041;-65
2023/01/30 04:47:54;;;;;;;4.35;0.80;;;;;;;;;;2088967;28;20409;-65
2023/01/30 04:49:13;;;;;;;1.95;0.77;;;;;;;;;;2089428;28;20525;-64
2023/01/30 04:50:32;;;;;;;3.95;1.02;;;;;;;;;;2087931;28;20056;-66
2023/01/30 04:51:51;;;;;;;6.30;0.90;;;;;;;;;;2090521;28;20045;-66
2023/01/30 04:53:10;;;;;;;4.07;0.80;;;;;;;;;;2088822;28;20393;-65
2023/01/30 04:54:29;;;;;;;4.82;1.00;;;;;;;;;;2089243;28;20493;-65
2023/01/30 04:55:48;;;;;;;5.97;1.10;;;;;;;;;;2090887;28;20111;-67
2023/01/30 04:57:07;;;;;;;4.50;0.68;;;;;;;;;;2091055;28;20033;-65
2023/01/30 04:58:26;;;;;;;4.97;1.20;;;;;;;;;;2089528;28;20037;-67
2023/01/30 04:59:45;;;;;;;3.63;0.73;;;;;;;;;;2090841;28;20032;-66
2023/01/30 05:01:31;;;;;;;3.58;0.90;;;;;;;;;;2088937;28;20033;-65
2023/01/30 05:02:50;;;;;;;1.88;0.63;;;;;;;;;;2087782;28;20036;-66
2023/01/30 05:04:09;;;;;;;6.55;0.90;;;;;;;;;;2091725;28;20536;-66
2023/01/30 05:05:28;;;;;;;3.67;0.45;;;;;;;;;;2088719;28;20029;-65
2023/01/30 05:06:47;;;;;;;3.05;0.55;;;;;;;;;;2090207;28;20029;-65
2023/01/30 05:08:06;;;;;;;5.28;1.10;;;;;;;;;;2085113;28;20465;-65
2023/01/30 05:09:25;;;;;;;6.72;1.65;;;;;;;;;;2091159;28;20057;-66
2023/01/30 05:10:44;;;;;;;6.75;1.33;;;;;;;;;;2086541;28;20068;-65
2023/01/30 05:12:03;;;;;;;6.93;1.48;;;;;;;;;;2090197;28;20032;-67
2023/01/30 05:13:22;;;;;;;3.30;1.10;;;;;;;;;;2087295;28;20029;-67
2023/01/30 05:14:40;;;;;;;3.28;0.88;;;;;;;;;;2084931;28;20163;-65
2023/01/30 05:15:59;;;;;;;2.65;0.82;;;;;;;;;;2084402;28;20455;-65
2023/01/30 05:17:18;;;;;;;2.30;1.15;;;;;;;;;;2089180;28;20402;-65
2023/01/30 05:18:38;;;;;;;4.63;0.95;;;;;;;;;;2088784;28;20029;-65
2023/01/30 05:19:57;;;;;;;4.47;1.17;;;;;;;;;;2089136;28;20660;-65
2023/01/30 05:21:17;;;;;;;5.18;1.27;;;;;;;;;;2088334;28;20029;-64
2023/01/30 05:22:37;;;;;;;4.63;1.02;;;;;;;;;;2086949;28;20017;-65
2023/01/30 05:23:56;;;;;;;6.25;1.30;;;;;;;;;;2090974;28;20428;-66
2023/01/30 05:25:15;;;;;;;5.85;1.60;;;;;;;;;;2088761;28;20115;-65
2023/01/30 05:26:34;;;;;;;5.00;1.20;;;;;;;;;;2088531;28;20025;-66
2023/01/30 05:27:53;;;;;;;3.50;1.17;;;;;;;;;;2090505;28;20017;-67
2023/01/30 05:29:11;;;;;;;4.05;1.05;;;;;;;;;;2090383;28;20417;-65
2023/01/30 05:30:31;;;;;;;4.20;1.20;;;;;;;;;;2089458;28;20052;-64
2023/01/30 05:31:49;;;;;;;2.92;1.00;;;;;;;;;;2092068;28;20505;-65
2023/01/30 05:33:08;;;;;;;5.53;1.52;;;;;;;;;;2085482;28;20024;-67
2023/01/30 05:34:27;;;;;;;5.15;1.00;;;;;;;;;;2086861;28;20024;-65
2023/01/30 05:35:47;;;;;;;3.50;0.88;;;;;;;;;;2091053;28;20029;-67
2023/01/30 05:37:05;;;;;;;4.15;1.10;;;;;;;;;;2092025;28;20036;-66
2023/01/30 05:38:25;;;;;;;5.20;1.02;;;;;;;;;;2089873;28;20024;-66
2023/01/30 05:39:44;;;;;;;1.75;0.85;;;;;;;;;;2092512;28;20126;-65
2023/01/30 05:41:04;;;;;;;0.80;0.55;;;;;;;;;;2091020;28;20033;-64
2023/01/30 05:42:23;;;;;;;7.80;1.70;;;;;;;;;;2090306;28;20029;-65
2023/01/30 05:43:42;;;;;;;5.25;0.80;;;;;;;;;;2090047;28;20386;-67
2023/01/30 05:45:01;;;;;;;3.45;1.08;;;;;;;;;;2092166;28;20028;-65
2023/01/30 05:46:20;;;;;;;5.13;1.50;;;;;;;;;;2091638;28;20021;-64
2023/01/30 05:47:39;;;;;;;3.08;1.00;;;;;;;;;;2090079;28;20017;-65
2023/01/30 05:48:58;;;;;;;3.08;1.02;;;;;;;;;;2087060;28;20056;-65
2023/01/30 05:50:17;;;;;;;9.27;1.10;;;;;;;;;;2090970;28;20021;-65
2023/01/30 05:51:36;;;;;;;1.88;0.57;;;;;;;;;;2090370;28;20033;-65
2023/01/30 05:52:55;;;;;;;3.65;1.13;;;;;;;;;;2089122;28;20398;-65
2023/01/30 05:54:14;;;;;;;4.03;0.90;;;;;;;;;;2090807;28;20029;-65
2023/01/30 05:55:33;;;;;;;5.13;1.13;;;;;;;;;;2089232;28;20079;-66
2023/01/30 05:56:52;;;;;;;8.00;1.10;;;;;;;;;;2091282;28;20385;-65
2023/01/30 05:58:11;;;;;;;4.93;0.90;;;;;;;;;;2091659;28;20750;-65
2023/01/30 05:59:30;;;;;;;5.38;0.60;;;;;;;;;;2092218;28;20028;-65
2023/01/30 06:00:49;;;;;;;3.83;0.60;;;;;;;;;;2087417;28;20107;-65
2023/01/30 06:02:08;;;;;;;2.55;0.70;;;;;;;;;;2091176;28;20032;-65
2023/01/30 06:03:27;;;;;;;3.47;0.90;;;;;;;;;;2093477;28;20030;-64
2023/01/30 06:04:46;;;;;;;2.40;0.68;;;;;;;;;;2089124;28;20029;-64
2023/01/30 06:06:06;;;;;;;3.67;0.90;;;;;;;;;;2091070;28;20406;-65
2023/01/30 06:07:25;;;;;;;5.72;0.82;;;;;;;;;;2088663;28;20033;-65
2023/01/30 06:08:44;;;;;;;2.60;0.98;;;;;;;;;;2091688;28;20017;-66
2023/01/30 06:10:04;;;;;;;5.45;1.05;;;;;;;;;;2090450;28;20032;-65
2023/01/30 06:11:22;;;;;;;4.03;0.80;;;;;;;;;;2091460;28;20032;-65
2023/01/30 06:12:41;;;;;;;5.15;0.90;;;;;;;;;;2089998;28;20033;-64
2023/01/30 06:14:00;;;;;;;3.78;0.90;;;;;;;;;;2090793;28;20032;-67
2023/01/30 06:15:19;;;;;;;6.28;0.90;;;;;;;;;;2088291;28;20032;-65
2023/01/30 06:16:38;;;;;;;4.13;0.90;;;;;;;;;;2087819;28;20024;-65
2023/01/30 06:17:57;;;;;;;1.20;0.43;;;;;;;;;;2089563;28;20112;-66
2023/01/30 06:19:16;;;;;;;6.05;1.30;;;;;;;;;;2090756;28;20440;-64
2023/01/30 06:20:35;;;;;;;3.38;1.08;;;;;;;;;;2091570;28;20060;-66
2023/01/30 06:21:53;;;;;;;1.48;0.60;;;;;;;;;;2090119;28;20151;-64
2023/01/30 06:23:12;;;;;;;6.20;0.90;;;;;;;;;;2089559;28;20036;-65
2023/01/30 06:24:31;;;;;;;1.65;0.43;;;;;;;;;;2091723;28;20036;-65
2023/01/30 06:25:51;;;;;;;3.85;0.70;;;;;;;;;;2092545;28;20439;-65
2023/01/30 06:27:10;;;;;;;5.43;1.00;;;;;;;;;;2089557;28;20029;-65
2023/01/30 06:28:29;;;;;;;3.13;0.85;;;;;;;;;;2089811;28;20066;-64
2023/01/30 06:29:48;;;;;;;3.13;0.80;;;;;;;;;;2090268;28;20033;-64
2023/01/30 06:31:07;;;;;;;4.47;0.82;;;;;;;;;;2090289;28;20029;-64
2023/01/30 06:32:26;;;;;;;4.60;0.90;;;;;;;;;;2087960;28;20032;-65
2023/01/30 06:33:47;;;;;;;7.35;1.98;;;;;;;;;;2090334;28;20033;-65
2023/01/30 06:35:07;;;;;;;4.68;0.95;;;;;;;;;;2092351;28;20029;-64
2023/01/30 06:36:26;;;;;;;7.15;1.00;;;;;;;;;;2092463;28;20063;-64
2023/01/30 06:37:45;;;;;;;4.15;0.82;;;;;;;;;;2090844;28;20493;-64
2023/01/30 06:39:03;;;;;;;2.55;0.80;;;;;;;;;;2089047;28;20490;-65
2023/01/30 06:40:22;;;;;;;2.42;1.15;;;;;;;;;;2089318;28;20025;-65
2023/01/30 06:41:41;;;;;;;3.90;1.13;;;;;;;;;;2092498;28;20033;-65
2023/01/30 06:43:00;;;;;;;0.70;0.50;;;;;;;;;;2090743;28;20037;-65
2023/01/30 06:44:19;;;;;;;5.85;1.08;;;;;;;;;;2090003;28;20063;-65
2023/01/30 06:45:38;;;;;;;4.35;1.17;;;;;;;;;;2089828;28;20481;-65
2023/01/30 06:46:57;;;;;;;9.30;1.02;;;;;;;;;;2089928;28;20029;-66
2023/01/30 06:48:17;;;;;;;2.63;0.98;;;;;;;;;;2092467;28;20473;-66
2023/01/30 06:49:35;;;;;;;3.00;0.52;;;;;;;;;;2091462;28;20509;-65
2023/01/30 06:50:54;;;;;;;2.85;0.90;;;;;;;;;;2088428;28;20029;-64
2023/01/30 06:52:13;;;;;;;7.20;1.23;;;;;;;;;;2091308;28;20044;-63
2023/01/30 06:53:32;;;;;;;2.63;0.77;;;;;;;;;;2089209;28;20044;-65
2023/01/30 06:54:51;;;;;;;3.75;0.90;;;;;;;;;;2091499;28;20025;-64
2023/01/30 06:56:12;;;;;;;2.28;0.38;;;;;;;;;;2092384;28;20051;-66
2023/01/30 06:57:31;;;;;;;3.63;0.93;;;;;;;;;;2091617;28;20381;-64
2023/01/30 06:58:49;;;;;;;3.85;0.80;;;;;;;;;;2091717;28;20069;-66
2023/01/30 07:00:16;;;;;;;4.93;0.70;;;;;;;;;;2090444;28;20036;-66
2023/01/30 07:01:36;;;;;;;1.90;0.63;;;;;;;;;;2088233;28;20520;-65
2023/01/30 07:02:55;;;;;;;4.28;0.55;;;;;;;;;;2090879;28;20036;-65
2023/01/30 07:04:14;;;;;;;4.75;0.77;;;;;;;;;;2093045;28;20493;-64
2023/01/30 07:05:33;;;;;;;2.35;0.90;;;;;;;;;;2092169;28;20029;-64
2023/01/30 07:06:52;;;;;;;3.88;0.60;;;;;;;;;;2091205;28;20029;-63
2023/01/30 07:08:11;;;;;;;4.88;0.77;;;;;;;;;;2091919;28;20108;-64
2023/01/30 07:09:30;;;;;;;2.00;0.52;;;;;;;;;;2093361;28;20119;-65
2023/01/30 07:10:49;;;;;;;6.13;0.70;;;;;;;;;;2092857;28;20024;-64
2023/01/30 07:12:08;;;;;;;2.92;0.65;;;;;;;;;;2092519;28;20100;-66
2023/01/30 07:13:27;;;;;;;4.20;1.05;;;;;;;;;;2092294;28;20033;-64
2023/01/30 07:14:46;;;;;;;9.50;1.73;;;;;;;;;;2092463;28;20041;-64
2023/01/30 07:16:05;;;;;;;4.45;0.85;;;;;;;;;;2092439;28;20033;-64
2023/01/30 07:17:24;;;;;;;4.30;1.08;;;;;;;;;;2091749;28;20043;-63
2023/01/30 07:18:43;;;;;;;6.57;1.33;;;;;;;;;;2092817;28;20021;-63
2023/01/30 07:20:02;;;;;;;7.03;1.23;;;;;;;;;;2090535;28;20117;-64
2023/01/30 07:21:21;;;;;;;2.38;0.52;;;;;;;;;;2092515;28;20414;-64
2023/01/30 07:22:40;;;;;;;5.35;0.70;;;;;;;;;;2092171;28;20049;-65
2023/01/30 07:23:59;;;;;;;4.80;1.05;;;;;;;;;;2091720;28;20029;-64
2023/01/30 07:25:18;;;;;;;3.15;0.88;;;;;;;;;;2092678;28;20028;-64
2023/01/30 07:26:37;;;;;;;3.55;0.80;;;;;;;;;;2090597;28;20063;-64
2023/01/30 07:27:58;;;;;;;4.40;0.90;;;;;;;;;;2090328;28;20021;-64
2023/01/30 07:29:17;;;;;;;7.35;0.80;;;;;;;;;;2092047;28;20021;-64
2023/01/30 07:30:36;;;;;;;3.22;0.77;;;;;;;;;;2089791;28;20052;-66
2023/01/30 07:31:55;;;;;;;4.95;0.82;;;;;;;;;;2092039;28;20029;-64
2023/01/30 07:33:13;;;;;;;4.05;0.80;;;;;;;;;;2090525;28;20111;-65
2023/01/30 07:34:32;;;;;;;5.82;1.00;;;;;;;;;;2089249;28;20033;-65
2023/01/30 07:35:52;;;;;;;5.07;0.90;;;;;;;;;;2089599;28;20021;-67
2023/01/30 07:37:11;;;;;;;0.90;0.43;;;;;;;;;;2092740;28;20025;-64
2023/01/30 07:38:30;;;;;;;5.85;0.93;;;;;;;;;;2091456;28;20032;-64
2023/01/30 07:39:49;;;;;;;4.03;0.70;;;;;;;;;;2092084;28;20028;-64
2023/01/30 07:41:08;;;;;;;2.85;0.80;;;;;;;;;;2090464;28;20032;-64
2023/01/30 07:42:27;;;;;;;4.40;0.93;;;;;;;;;;2092077;28;20501;-64
2023/01/30 07:43:47;;;;;;;6.70;1.42;;;;;;;;;;2089457;28;20076;-64
2023/01/30 07:45:07;;;;;;;1.52;0.57;;;;;;;;;;2091067;28;20474;-64
2023/01/30 07:46:33;;;;;;;9.23;0.93;;;;;;;;;;2092837;28;20025;-64
2023/01/30 07:47:52;;;;;;;2.58;0.57;;;;;;;;;;2093268;28;20025;-66
2023/01/30 07:49:11;;;;;;;3.58;0.70;;;;;;;;;;2091592;28;20115;-64
2023/01/30 07:50:30;;;;;;;5.07;0.98;;;;;;;;;;2089569;28;20029;-64
2023/01/30 07:51:49;;;;;;;2.08;0.55;;;;;;;;;;2088620;28;20063;-64
2023/01/30 07:53:09;;;;;;;3.70;1.20;;;;;;;;;;2090826;28;20033;-65
2023/01/30 07:54:28;;;;;;;3.40;0.93;;;;;;;;;;2088199;28;20029;-64
2023/01/30 07:55:47;;;;;;;2.88;0.95;;;;;;;;;;2090880;28;20037;-65
2023/01/30 07:57:06;;;;;;;5.93;1.17;;;;;;;;;;2090239;28;20017;-64
2023/01/30 07:58:25;;;;;;;3.85;0.80;;;;;;;;;;2087548;28;20116;-67
2023/01/30 07:59:44;;;;;;;3.75;0.77;;;;;;;;;;2090757;28;20032;-64
2023/01/30 08:01:03;;;;;;;3.20;0.93;;;;;;;;;;2089943;28;20025;-64
2023/01/30 08:02:22;;;;;;;1.92;0.95;;;;;;;;;;2091872;28;20017;-64
2023/01/30 08:03:42;;;;;;;4.47;0.55;;;;;;;;;;2089954;28;20029;-64
2023/01/30 08:05:01;;;;;;;4.13;0.63;;;;;;;;;;2092344;28;20899;-64
2023/01/30 08:06:20;;;;;;;3.30;0.80;;;;;;;;;;2092912;28;20025;-64
2023/01/30 08:07:39;;;;;;;3.65;0.88;;;;;;;;;;2090288;28;20017;-67
2023/01/30 08:08:58;;;;;;;2.15;0.75;;;;;;;;;;2089330;28;20108;-65